Time;durP1;ratioP1;P1;durP2;ratioP2;P2;SDS_P1;SDS_P2;PMS_P1;PMS_P2;Temp;Humidity;BMP_temperature;BMP_pressure;BME280_temperature;BME280_humidity;BME280_pressure;Samples;Min_cycle;Max_cycle;Signal;HPM_P1;HPM_P2
2023/04/19 00:03:00;;;;;;;7.17;6.57;;;6.10;63.70;;;;;;6294287;28;20384;-83
2023/04/19 00:06:07;;;;;;;6.60;6.10;;;6.10;63.10;;;;;;6300917;28;20291;-82
2023/04/19 00:09:10;;;;;;;6.77;6.10;;;6.10;63.00;;;;;;6302186;28;20251;-84
2023/04/19 00:12:13;;;;;;;5.90;5.47;;;6.10;63.00;;;;;;6311141;28;20240;-83
2023/04/19 00:15:18;;;;;;;6.30;5.90;;;6.10;62.50;;;;;;6300003;28;20244;-83
2023/04/19 00:18:21;;;;;;;6.67;6.23;;;6.20;62.20;;;;;;6297184;28;20237;-84
2023/04/19 00:21:25;;;;;;;7.53;6.57;;;6.20;62.00;;;;;;6298683;28;20774;-82
2023/04/19 00:24:28;;;;;;;6.20;5.80;;;6.20;62.10;;;;;;6300976;28;20229;-85
2023/04/19 00:27:33;;;;;;;6.17;5.77;;;6.20;61.60;;;;;;6302034;28;20838;-83
2023/04/19 00:30:37;;;;;;;5.87;5.47;;;6.20;61.40;;;;;;6286025;28;20314;-83
2023/04/19 00:33:41;;;;;;;6.17;5.67;;;6.20;61.00;;;;;;6289883;27;20240;-83
2023/04/19 00:36:44;;;;;;;6.37;5.87;;;6.20;61.10;;;;;;6292359;28;20244;-85
2023/04/19 00:39:47;;;;;;;6.40;5.90;;;6.20;61.00;;;;;;6295011;28;20373;-84
2023/04/19 00:42:50;;;;;;;6.43;5.73;;;6.20;60.60;;;;;;6301966;28;20244;-83
2023/04/19 00:45:54;;;;;;;6.20;5.67;;;6.20;60.50;;;;;;6300845;28;20243;-81
2023/04/19 00:48:58;;;;;;;6.07;5.73;;;6.10;60.40;;;;;;6285639;28;20351;-81
2023/04/19 00:52:01;;;;;;;6.43;5.83;;;6.20;59.70;;;;;;6301437;28;20237;-82
2023/04/19 00:55:05;;;;;;;5.93;5.60;;;6.20;59.60;;;;;;6291755;28;20324;-83
2023/04/19 00:58:09;;;;;;;5.83;5.60;;;6.10;60.10;;;;;;6296727;28;20740;-83
2023/04/19 01:01:14;;;;;;;5.97;5.57;;;6.10;60.30;;;;;;6292242;28;20237;-83
2023/04/19 01:04:18;;;;;;;6.60;5.80;;;6.00;60.00;;;;;;6278373;28;20239;-82
2023/04/19 01:07:21;;;;;;;6.07;5.67;;;6.00;60.00;;;;;;6278373;28;20244;-81
2023/04/19 01:10:25;;;;;;;5.67;5.37;;;6.00;60.10;;;;;;6280598;28;20238;-85
2023/04/19 01:13:28;;;;;;;7.13;5.77;;;6.00;59.80;;;;;;6290694;28;20264;-82
2023/04/19 01:16:34;;;;;;;6.07;5.77;;;5.90;59.90;;;;;;6286658;28;20241;-81
2023/04/19 01:19:37;;;;;;;6.47;5.97;;;5.90;60.20;;;;;;6283981;28;20237;-84
2023/04/19 01:22:42;;;;;;;8.13;6.20;;;5.80;60.20;;;;;;6298373;28;20275;-82
2023/04/19 01:25:45;;;;;;;6.20;5.57;;;5.80;59.90;;;;;;6284040;28;20232;-82
2023/04/19 01:28:48;;;;;;;5.97;5.17;;;5.70;59.80;;;;;;6292368;28;20233;-83
2023/04/19 01:31:52;;;;;;;6.27;5.70;;;5.70;59.70;;;;;;6284677;28;20232;-84
2023/04/19 01:34:56;;;;;;;5.97;4.80;;;5.60;60.10;;;;;;6281095;28;20252;-80
2023/04/19 01:38:00;;;;;;;5.50;5.17;;;5.50;60.30;;;;;;6297963;28;20240;-84
2023/04/19 01:41:04;;;;;;;5.97;5.67;;;5.40;60.50;;;;;;6292132;28;20316;-82
2023/04/19 01:44:07;;;;;;;5.57;5.23;;;5.30;60.50;;;;;;6275331;28;20263;-79
2023/04/19 01:47:10;;;;;;;6.30;5.87;;;5.30;60.50;;;;;;6300657;28;20819;-79
2023/04/19 01:50:13;;;;;;;5.23;4.87;;;5.30;60.60;;;;;;6293436;28;20237;-79
2023/04/19 01:53:17;;;;;;;5.83;5.33;;;5.30;60.80;;;;;;6280722;28;20295;-80
2023/04/19 01:56:21;;;;;;;5.57;5.27;;;5.10;61.00;;;;;;6288634;28;20623;-79
2023/04/19 01:59:24;;;;;;;5.23;4.67;;;5.10;61.20;;;;;;6291729;28;20368;-82
2023/04/19 02:02:27;;;;;;;6.07;5.60;;;5.10;61.30;;;;;;6281684;28;20233;-82
2023/04/19 02:05:31;;;;;;;6.10;5.73;;;5.00;61.60;;;;;;6300002;28;20237;-78
2023/04/19 02:08:35;;;;;;;7.37;5.73;;;5.00;61.60;;;;;;6298620;28;20241;-77
2023/04/19 02:11:39;;;;;;;6.40;5.80;;;4.90;62.00;;;;;;6290336;28;20244;-78
2023/04/19 02:14:42;;;;;;;6.50;6.10;;;4.90;62.00;;;;;;6308101;28;20241;-80
2023/04/19 02:17:46;;;;;;;5.43;5.13;;;4.70;62.10;;;;;;6318428;28;20251;-81
2023/04/19 02:20:49;;;;;;;5.67;5.37;;;4.80;62.00;;;;;;6273565;28;20319;-82
2023/04/19 02:23:53;;;;;;;6.20;5.73;;;4.70;62.10;;;;;;6296557;28;21016;-80
2023/04/19 02:26:56;;;;;;;5.70;5.30;;;4.70;62.20;;;;;;6299284;28;21301;-81
2023/04/19 02:29:59;;;;;;;6.60;6.20;;;4.70;62.20;;;;;;6290259;28;20237;-80
2023/04/19 02:33:02;;;;;;;6.07;5.60;;;4.60;62.50;;;;;;6300898;28;20236;-83
2023/04/19 02:36:06;;;;;;;5.90;5.40;;;4.60;62.50;;;;;;6289907;28;20743;-84
2023/04/19 02:39:11;;;;;;;6.07;5.67;;;4.60;62.70;;;;;;6296106;28;20232;-80
2023/04/19 02:42:14;;;;;;;5.67;5.27;;;4.50;62.90;;;;;;6304149;28;20238;-81
2023/04/19 02:45:17;;;;;;;5.93;5.47;;;4.50;63.10;;;;;;6292703;28;20265;-83
2023/04/19 02:48:20;;;;;;;5.70;5.40;;;4.40;63.20;;;;;;6286141;28;20237;-80
2023/04/19 02:51:23;;;;;;;5.83;5.10;;;4.40;63.40;;;;;;6297576;28;20254;-81
2023/04/19 02:54:28;;;;;;;5.57;5.27;;;4.30;63.50;;;;;;6294586;28;20233;-79
2023/04/19 02:57:31;;;;;;;5.50;5.00;;;4.30;63.70;;;;;;6291506;28;20230;-82
2023/04/19 03:00:34;;;;;;;4.90;4.60;;;4.30;63.70;;;;;;6282707;28;20249;-82
2023/04/19 03:03:37;;;;;;;5.87;5.50;;;4.30;63.70;;;;;;6291119;28;20230;-81
2023/04/19 03:06:44;;;;;;;5.63;5.13;;;4.30;64.00;;;;;;6293220;28;20277;-81
2023/04/19 03:09:48;;;;;;;4.87;4.70;;;4.30;64.20;;;;;;6285507;28;20739;-81
2023/04/19 03:12:51;;;;;;;5.27;5.00;;;4.20;64.40;;;;;;6292345;28;20277;-80
2023/04/19 03:15:54;;;;;;;5.27;5.07;;;4.20;64.50;;;;;;6288372;28;20344;-81
2023/04/19 03:18:57;;;;;;;5.33;5.03;;;4.20;64.70;;;;;;6288959;28;20240;-78
2023/04/19 03:22:00;;;;;;;5.97;5.57;;;4.10;64.90;;;;;;6286129;28;20229;-81
2023/04/19 03:25:06;;;;;;;5.40;5.10;;;4.00;65.40;;;;;;6300225;28;20335;-80
2023/04/19 03:28:09;;;;;;;5.33;5.13;;;4.00;65.50;;;;;;6293181;28;20235;-80
2023/04/19 03:31:14;;;;;;;5.40;5.10;;;4.00;65.50;;;;;;6298193;28;20273;-80
2023/04/19 03:34:17;;;;;;;5.50;5.20;;;4.00;65.70;;;;;;6282118;28;20240;-81
2023/04/19 03:37:20;;;;;;;5.60;5.20;;;4.00;65.70;;;;;;6285973;28;20233;-80
2023/04/19 03:40:25;;;;;;;5.73;5.27;;;4.00;65.90;;;;;;6287549;28;20245;-81
2023/04/19 03:43:28;;;;;;;6.13;5.33;;;4.00;66.40;;;;;;6288160;28;20252;-79
2023/04/19 03:46:31;;;;;;;4.60;4.40;;;4.00;66.60;;;;;;6295919;28;20225;-80
2023/04/19 03:49:34;;;;;;;5.23;4.93;;;3.90;66.60;;;;;;6284155;28;20244;-79
2023/04/19 03:52:38;;;;;;;6.73;5.50;;;3.90;66.70;;;;;;6287211;28;20605;-79
2023/04/19 03:55:42;;;;;;;4.67;4.47;;;3.90;66.80;;;;;;6290330;28;20721;-80
2023/04/19 03:58:45;;;;;;;5.53;5.13;;;3.90;67.00;;;;;;6287628;28;20225;-81
2023/04/19 04:01:49;;;;;;;5.40;5.00;;;3.90;67.10;;;;;;6283984;28;20351;-82
2023/04/19 04:04:53;;;;;;;5.30;4.80;;;3.90;67.10;;;;;;6281476;28;20241;-81
2023/04/19 04:07:57;;;;;;;5.50;5.10;;;3.90;67.60;;;;;;6287121;28;20257;-80
2023/04/19 04:11:01;;;;;;;4.57;4.37;;;3.90;67.90;;;;;;6286764;28;20287;-81
2023/04/19 04:14:04;;;;;;;5.47;5.17;;;3.80;68.00;;;;;;6288670;28;20237;-81
2023/04/19 04:17:07;;;;;;;5.50;5.10;;;3.80;68.20;;;;;;6287254;28;20281;-81
2023/04/19 04:20:12;;;;;;;5.70;5.27;;;3.80;68.50;;;;;;6284559;28;20233;-81
2023/04/19 04:23:15;;;;;;;5.23;5.03;;;3.90;68.60;;;;;;6289058;28;20375;-81
2023/04/19 04:26:20;;;;;;;6.67;5.50;;;3.80;69.00;;;;;;6287888;28;20234;-83
2023/04/19 04:29:23;;;;;;;6.10;5.30;;;3.90;69.10;;;;;;6280400;28;20233;-81
2023/04/19 04:32:26;;;;;;;5.00;4.70;;;3.80;69.40;;;;;;6284113;28;20255;-82
2023/04/19 04:35:30;;;;;;;5.97;4.97;;;3.80;69.50;;;;;;6290033;28;20325;-80
2023/04/19 04:38:33;;;;;;;5.40;5.10;;;3.90;69.60;;;;;;6297809;28;20237;-82
2023/04/19 04:41:40;;;;;;;5.13;4.87;;;3.90;69.80;;;;;;6306135;28;20237;-79
2023/04/19 04:44:43;;;;;;;5.43;4.57;;;3.90;69.90;;;;;;6292104;28;20240;-80
2023/04/19 04:47:47;;;;;;;5.47;5.07;;;3.90;69.80;;;;;;6284682;28;20697;-80
2023/04/19 04:50:50;;;;;;;5.57;5.07;;;3.90;69.80;;;;;;6286493;28;20797;-81
2023/04/19 04:53:53;;;;;;;6.07;5.03;;;3.90;70.00;;;;;;6287616;28;20244;-80
2023/04/19 04:56:59;;;;;;;6.07;5.40;;;4.00;70.00;;;;;;6285629;28;20841;-80
2023/04/19 05:00:05;;;;;;;5.43;5.13;;;4.00;69.80;;;;;;6281936;28;20229;-79
2023/04/19 05:03:08;;;;;;;7.37;5.23;;;4.00;70.10;;;;;;6281178;28;20294;-81
2023/04/19 05:06:12;;;;;;;5.33;4.83;;;4.00;70.00;;;;;;6290818;28;20244;-82
2023/04/19 05:09:16;;;;;;;5.23;4.87;;;4.10;69.80;;;;;;6285534;28;20235;-80
2023/04/19 05:12:21;;;;;;;8.07;4.80;;;4.10;70.10;;;;;;6279982;28;20236;-80
2023/04/19 05:15:24;;;;;;;5.03;4.63;;;4.10;70.00;;;;;;6281862;28;20245;-81
2023/04/19 05:18:27;;;;;;;8.60;5.10;;;4.10;70.00;;;;;;6286081;28;20715;-81
2023/04/19 05:21:30;;;;;;;6.90;4.60;;;4.20;70.10;;;;;;6281346;28;20241;-79
2023/04/19 05:24:33;;;;;;;5.77;5.07;;;4.30;70.10;;;;;;6279961;28;20241;-78
2023/04/19 05:27:37;;;;;;;5.20;4.80;;;4.30;69.90;;;;;;6283610;28;20240;-79
2023/04/19 05:30:40;;;;;;;5.20;4.87;;;4.40;70.00;;;;;;6286925;28;20237;-77
2023/04/19 05:33:43;;;;;;;7.17;4.80;;;4.50;69.60;;;;;;6278679;28;20229;-80
2023/04/19 05:36:47;;;;;;;5.53;5.10;;;4.60;69.20;;;;;;6279588;28;20229;-80
2023/04/19 05:39:50;;;;;;;4.73;4.53;;;4.70;69.00;;;;;;6285012;28;20306;-79
2023/04/19 05:42:54;;;;;;;5.50;5.10;;;4.70;69.20;;;;;;6277636;28;20226;-79
2023/04/19 05:45:57;;;;;;;4.83;4.50;;;4.90;68.80;;;;;;6279638;28;20252;-80
2023/04/19 05:49:00;;;;;;;4.70;4.40;;;5.00;68.40;;;;;;6289178;28;20233;-80
2023/04/19 05:52:04;;;;;;;6.23;4.70;;;5.00;68.50;;;;;;6285874;28;20368;-80
2023/04/19 05:55:08;;;;;;;7.97;4.50;;;5.00;68.40;;;;;;6285418;28;20240;-80
2023/04/19 05:58:13;;;;;;;4.87;4.50;;;5.20;68.20;;;;;;6282240;28;20229;-81
2023/04/19 06:01:16;;;;;;;5.93;4.80;;;5.30;67.90;;;;;;6279981;28;20241;-79
2023/04/19 06:04:20;;;;;;;5.07;4.53;;;5.50;67.70;;;;;;6279276;28;20857;-81
2023/04/19 06:07:24;;;;;;;4.57;4.13;;;5.70;67.10;;;;;;6274331;28;20229;-81
2023/04/19 06:10:36;;;;;;;4.73;4.43;;;5.90;66.50;;;;;;6284479;28;20244;-78
2023/04/19 06:13:57;;;;;;;8.67;4.80;;;6.00;66.00;;;;;;6278930;28;20230;-78
2023/04/19 06:17:02;;;;;;;5.20;4.90;;;6.30;65.50;;;;;;6274481;28;20234;-79
2023/04/19 06:20:07;;;;;;;6.70;4.27;;;6.50;64.90;;;;;;6283649;28;20346;-79
2023/04/19 06:23:11;;;;;;;4.40;4.10;;;6.80;64.20;;;;;;6285562;28;20229;-79
2023/04/19 06:26:15;;;;;;;4.33;4.00;;;7.00;64.10;;;;;;6282033;28;20391;-80
2023/04/19 06:29:20;;;;;;;3.83;3.70;;;8.00;61.90;;;;;;6286731;28;20236;-77
2023/04/19 06:32:24;;;;;;;4.50;4.17;;;8.60;60.10;;;;;;6280770;28;20333;-79
2023/04/19 06:35:28;;;;;;;4.27;3.80;;;8.50;59.70;;;;;;6287338;28;20245;-82
2023/04/19 06:38:31;;;;;;;5.63;3.70;;;8.60;59.50;;;;;;6288220;28;20233;-81
2023/04/19 06:41:34;;;;;;;5.13;4.33;;;8.50;59.30;;;;;;6286047;28;20237;-81
2023/04/19 06:44:38;;;;;;;5.03;3.60;;;8.40;59.30;;;;;;6282405;28;20238;-79
2023/04/19 06:47:41;;;;;;;4.60;3.90;;;8.50;59.20;;;;;;6286440;28;20932;-83
2023/04/19 06:50:45;;;;;;;4.17;3.60;;;8.50;59.10;;;;;;6284161;28;20233;-78
2023/04/19 06:53:49;;;;;;;3.93;3.67;;;8.30;59.30;;;;;;6285587;28;20768;-82
2023/04/19 06:56:52;;;;;;;4.27;4.03;;;8.30;59.20;;;;;;6288276;28;20605;-78
2023/04/19 06:59:57;;;;;;;4.90;3.83;;;8.30;59.10;;;;;;6270785;28;20226;-80
2023/04/19 07:03:00;;;;;;;6.17;4.27;;;8.40;59.10;;;;;;6288219;28;20303;-80
2023/04/19 07:06:03;;;;;;;6.47;4.00;;;8.40;58.50;;;;;;6293141;28;20340;-80
2023/04/19 07:09:08;;;;;;;3.97;3.63;;;8.50;58.70;;;;;;6270001;28;20263;-79
2023/04/19 07:12:11;;;;;;;4.40;4.10;;;8.50;58.50;;;;;;6296047;28;20256;-80
2023/04/19 07:15:15;;;;;;;4.50;4.00;;;8.60;58.00;;;;;;6313472;27;20234;-79
2023/04/19 07:18:18;;;;;;;4.07;3.87;;;8.80;57.90;;;;;;6285348;28;20237;-80
2023/04/19 07:21:23;;;;;;;4.63;4.10;;;8.90;57.00;;;;;;6286897;28;20261;-78
2023/04/19 07:24:28;;;;;;;3.80;3.60;;;9.00;56.40;;;;;;6289841;28;20237;-80
2023/04/19 07:27:31;;;;;;;4.93;3.87;;;9.00;55.80;;;;;;6289857;28;20228;-81
2023/04/19 07:30:36;;;;;;;4.30;3.90;;;9.00;55.30;;;;;;6287564;28;20237;-79
2023/04/19 07:33:39;;;;;;;4.63;4.17;;;9.00;55.10;;;;;;6278504;28;20233;-81
2023/04/19 07:36:42;;;;;;;5.37;3.80;;;9.00;55.30;;;;;;6276803;28;20234;-77
2023/04/19 07:39:45;;;;;;;4.20;3.87;;;9.10;55.00;;;;;;6294995;28;20905;-81
2023/04/19 07:42:48;;;;;;;5.27;3.67;;;9.40;54.90;;;;;;6283710;28;20620;-80
2023/04/19 07:45:53;;;;;;;4.33;3.93;;;9.40;55.00;;;;;;6296683;28;20252;-79
2023/04/19 07:48:56;;;;;;;6.73;3.90;;;9.50;54.20;;;;;;6289426;28;20871;-80
2023/04/19 07:51:59;;;;;;;4.47;4.10;;;9.70;53.50;;;;;;6280479;28;20234;-78
2023/04/19 07:55:02;;;;;;;3.70;3.50;;;9.70;53.40;;;;;;6285534;28;20241;-78
2023/04/19 07:58:05;;;;;;;5.10;4.53;;;9.80;53.10;;;;;;6282946;28;20249;-77
2023/04/19 08:01:10;;;;;;;4.27;3.97;;;9.90;53.10;;;;;;6285151;28;20242;-78
2023/04/19 08:04:13;;;;;;;4.47;4.23;;;10.00;52.10;;;;;;6286072;28;20237;-76
2023/04/19 08:07:16;;;;;;;5.57;3.73;;;10.10;52.50;;;;;;6282110;28;20713;-79
2023/04/19 08:10:20;;;;;;;6.97;3.97;;;10.10;51.70;;;;;;6292618;28;20821;-76
2023/04/19 08:13:24;;;;;;;4.80;4.40;;;10.20;51.00;;;;;;6287925;28;20229;-78
2023/04/19 08:16:28;;;;;;;4.30;3.90;;;10.40;51.20;;;;;;6286149;28;20241;-78
2023/04/19 08:19:51;;;;;;;3.93;3.77;;;10.40;51.20;;;;;;6286891;28;20240;-77
2023/04/19 08:22:55;;;;;;;4.57;4.27;;;10.60;50.90;;;;;;6281582;28;20236;-75
2023/04/19 08:25:58;;;;;;;3.90;3.80;;;10.70;50.60;;;;;;6295127;28;20233;-77
2023/04/19 08:29:01;;;;;;;4.40;3.87;;;11.00;50.50;;;;;;6294082;28;20268;-75
2023/04/19 08:32:06;;;;;;;5.47;4.20;;;11.10;49.90;;;;;;6282293;28;20241;-79
2023/04/19 08:35:10;;;;;;;5.27;4.07;;;11.10;49.90;;;;;;6278538;28;20233;-76
2023/04/19 08:38:13;;;;;;;4.30;3.83;;;11.20;49.70;;;;;;6292164;28;20311;-77
2023/04/19 08:41:18;;;;;;;4.10;3.90;;;11.50;49.80;;;;;;6287002;28;20241;-79
2023/04/19 08:44:22;;;;;;;4.03;3.80;;;11.50;49.60;;;;;;6290904;28;20320;-79
2023/04/19 08:47:41;;;;;;;4.53;4.13;;;11.70;49.20;;;;;;6281540;28;20233;-80
2023/04/19 08:51:03;;;;;;;4.50;4.00;;;11.90;49.00;;;;;;6290047;28;20241;-78
2023/04/19 08:54:08;;;;;;;4.33;4.13;;;11.90;48.80;;;;;;6279096;28;20229;-79
2023/04/19 08:57:11;;;;;;;7.57;4.77;;;12.10;49.60;;;;;;6294011;28;20233;-81
2023/04/19 09:00:15;;;;;;;4.03;3.93;;;12.10;48.50;;;;;;6287484;28;20236;-78
2023/04/19 09:03:19;;;;;;;5.57;4.23;;;12.10;48.50;;;;;;6293278;28;20237;-79
2023/04/19 09:06:23;;;;;;;4.70;4.37;;;12.20;48.60;;;;;;6283087;28;20313;-78
2023/04/19 09:09:27;;;;;;;4.90;4.50;;;12.30;48.50;;;;;;6287629;28;20729;-81
2023/04/19 09:12:43;;;;;;;5.40;4.20;;;12.30;49.00;;;;;;6283533;28;20879;-80
2023/04/19 09:15:46;;;;;;;4.27;3.77;;;12.50;48.20;;;;;;6285284;28;20244;-80
2023/04/19 09:19:00;;;;;;;5.43;4.33;;;12.60;47.30;;;;;;6296262;28;20901;-77
2023/04/19 09:22:23;;;;;;;4.17;3.73;;;12.80;47.50;;;;;;6310699;28;20346;-77
2023/04/19 09:25:26;;;;;;;6.63;4.30;;;12.90;47.00;;;;;;6327245;28;20392;-77
2023/04/19 09:28:32;;;;;;;10.00;4.20;;;12.90;47.00;;;;;;6319588;28;20273;-74
2023/04/19 09:31:37;;;;;;;7.87;4.67;;;12.70;47.10;;;;;;6303925;28;20259;-80
2023/04/19 09:34:52;;;;;;;4.33;3.93;;;12.50;47.00;;;;;;6285653;28;20231;-79
2023/04/19 09:38:00;;;;;;;5.40;4.60;;;12.30;46.80;;;;;;6285435;28;20308;-80
2023/04/19 09:41:07;;;;;;;4.40;4.00;;;12.10;47.50;;;;;;6280574;28;20614;-80
2023/04/19 09:44:11;;;;;;;7.33;4.50;;;12.20;47.60;;;;;;6283649;28;20226;-79
2023/04/19 09:47:34;;;;;;;5.00;4.57;;;12.50;47.20;;;;;;6284300;28;20233;-78
2023/04/19 09:50:52;;;;;;;5.37;4.50;;;12.50;47.30;;;;;;6284960;28;20256;-79
2023/04/19 09:54:02;;;;;;;4.90;4.60;;;12.50;47.50;;;;;;6281841;28;20722;-79
2023/04/19 09:57:06;;;;;;;4.83;4.40;;;12.60;46.90;;;;;;6279860;28;20233;-78
2023/04/19 10:00:12;;;;;;;4.50;4.20;;;12.50;47.50;;;;;;6288734;28;20243;-80
2023/04/19 10:03:16;;;;;;;4.20;3.93;;;12.50;47.40;;;;;;6281650;28;20237;-79
2023/04/19 10:06:21;;;;;;;4.27;4.00;;;12.60;47.20;;;;;;6282555;28;20238;-79
2023/04/19 10:09:28;;;;;;;6.33;4.17;;;12.70;47.40;;;;;;6290940;28;20221;-82
2023/04/19 10:12:32;;;;;;;4.37;4.03;;;13.00;47.20;;;;;;6288804;28;20240;-80
2023/04/19 10:15:41;;;;;;;4.27;3.93;;;13.10;46.50;;;;;;6287438;28;20694;-82
2023/04/19 10:18:56;;;;;;;4.60;4.20;;;13.30;46.40;;;;;;6286423;28;20237;-79
2023/04/19 10:22:04;;;;;;;4.77;4.43;;;13.30;46.70;;;;;;6288736;28;20249;-81
2023/04/19 10:25:11;;;;;;;4.40;3.97;;;13.60;46.20;;;;;;6275442;28;20264;-77
2023/04/19 10:28:16;;;;;;;4.40;4.20;;;13.70;45.70;;;;;;6287463;28;20818;-80
2023/04/19 10:31:22;;;;;;;5.00;4.60;;;13.70;46.00;;;;;;6282183;28;20574;-79
2023/04/19 10:34:37;;;;;;;5.50;4.03;;;13.90;46.00;;;;;;6285836;28;20279;-81
2023/04/19 10:37:42;;;;;;;4.53;4.13;;;13.70;46.30;;;;;;6285863;28;20243;-80
2023/04/19 10:41:00;;;;;;;6.27;4.17;;;13.60;46.20;;;;;;6288557;28;20248;-78
2023/04/19 10:44:11;;;;;;;5.90;4.63;;;13.30;46.50;;;;;;6288089;28;20245;-79
2023/04/19 10:47:34;;;;;;;6.97;4.47;;;13.20;46.40;;;;;;6280483;28;20233;-79
2023/04/19 10:50:58;;;;;;;5.00;4.60;;;13.10;46.40;;;;;;6286788;28;20607;-80
2023/04/19 10:54:04;;;;;;;4.60;4.13;;;13.20;46.60;;;;;;6291315;28;20232;-80
2023/04/19 10:57:09;;;;;;;5.07;4.43;;;13.30;46.60;;;;;;6288315;28;20314;-80
2023/04/19 11:00:20;;;;;;;5.20;4.80;;;13.40;46.10;;;;;;6288210;28;20724;-78
2023/04/19 11:03:51;;;;;;;4.60;4.20;;;13.50;46.40;;;;;;6293345;28;20259;-82
2023/04/19 11:07:03;;;;;;;5.03;4.70;;;13.50;46.40;;;;;;6312453;28;20232;-76
2023/04/19 11:10:09;;;;;;;5.87;4.53;;;13.80;46.40;;;;;;6332086;28;20224;-76
2023/04/19 11:13:12;;;;;;;4.63;4.20;;;14.00;46.20;;;;;;6320265;28;20228;-77
2023/04/19 11:16:15;;;;;;;4.00;3.83;;;14.00;46.20;;;;;;6321966;28;20221;-77
2023/04/19 11:19:21;;;;;;;4.27;3.87;;;14.00;45.90;;;;;;6322898;28;20243;-78
2023/04/19 11:22:31;;;;;;;5.27;4.77;;;13.90;45.70;;;;;;6324462;28;20241;-75
2023/04/19 11:25:36;;;;;;;5.00;4.60;;;13.50;46.20;;;;;;6326585;28;20300;-78
2023/04/19 11:28:39;;;;;;;6.73;5.00;;;13.70;46.60;;;;;;6328069;28;20316;-77
2023/04/19 11:31:45;;;;;;;4.20;3.90;;;13.90;46.70;;;;;;6307297;28;20237;-80
2023/04/19 11:34:48;;;;;;;8.93;4.37;;;13.90;46.50;;;;;;6294379;28;20607;-82
2023/04/19 11:37:52;;;;;;;6.10;5.00;;;13.90;46.10;;;;;;6298504;28;20240;-82
2023/04/19 11:41:00;;;;;;;6.13;4.83;;;13.90;45.90;;;;;;6292956;28;20241;-78
2023/04/19 11:44:03;;;;;;;6.00;4.53;;;13.80;46.30;;;;;;6302024;28;20311;-79
2023/04/19 11:47:07;;;;;;;9.83;4.33;;;14.00;45.90;;;;;;6290871;28;20304;-80
2023/04/19 11:50:32;;;;;;;4.27;3.90;;;14.10;45.50;;;;;;6284973;28;20236;-81
2023/04/19 11:53:35;;;;;;;4.47;4.10;;;14.10;45.20;;;;;;6289213;28;20244;-80
2023/04/19 11:56:57;;;;;;;4.53;4.20;;;13.90;45.70;;;;;;6285369;28;20282;-81
2023/04/19 12:00:10;;;;;;;4.57;4.43;;;13.70;45.70;;;;;;6292254;28;20717;-80
2023/04/19 12:03:14;;;;;;;9.77;4.60;;;13.60;45.90;;;;;;6302097;28;20221;-78
2023/04/19 12:06:22;;;;;;;5.33;4.60;;;13.60;45.80;;;;;;6315732;28;20225;-76
2023/04/19 12:09:25;;;;;;;4.63;4.30;;;13.60;45.40;;;;;;6313854;28;20222;-78
2023/04/19 12:12:36;;;;;;;4.57;4.20;;;13.70;45.40;;;;;;6322057;28;20289;-76
2023/04/19 12:15:42;;;;;;;5.07;4.43;;;13.90;44.90;;;;;;6319886;28;20238;-75
2023/04/19 12:18:47;;;;;;;5.10;4.43;;;14.00;44.90;;;;;;6320169;28;20214;-76
2023/04/19 12:21:51;;;;;;;4.57;4.17;;;14.20;44.40;;;;;;6320708;28;20289;-78
2023/04/19 12:24:54;;;;;;;6.47;4.47;;;14.20;44.70;;;;;;6320109;28;20244;-75
2023/04/19 12:27:59;;;;;;;5.23;4.70;;;14.20;45.00;;;;;;6295460;28;20461;-81
2023/04/19 12:31:03;;;;;;;4.77;4.47;;;13.90;45.40;;;;;;6292609;28;20313;-80
2023/04/19 12:34:06;;;;;;;4.20;4.00;;;13.80;45.80;;;;;;6281261;28;20268;-82
2023/04/19 12:37:09;;;;;;;4.30;4.00;;;13.70;45.60;;;;;;6298472;28;20232;-80
2023/04/19 12:40:14;;;;;;;4.37;4.00;;;13.90;46.10;;;;;;6293224;28;20245;-83
2023/04/19 12:43:19;;;;;;;5.07;4.53;;;13.90;45.30;;;;;;6301882;28;20308;-79
2023/04/19 12:46:22;;;;;;;8.63;5.20;;;14.00;45.40;;;;;;6291206;28;20237;-81
2023/04/19 12:49:25;;;;;;;4.80;4.50;;;14.00;45.40;;;;;;6278828;28;20302;-81
2023/04/19 12:52:28;;;;;;;6.80;4.73;;;14.10;45.40;;;;;;6282316;28;20379;-80
2023/04/19 12:55:31;;;;;;;5.37;4.87;;;14.20;45.00;;;;;;6282511;28;20641;-82
2023/04/19 12:58:36;;;;;;;8.40;4.60;;;13.80;45.40;;;;;;6283360;28;20257;-81
2023/04/19 13:01:39;;;;;;;5.47;5.03;;;13.60;45.80;;;;;;6290131;28;20261;-80
2023/04/19 13:04:42;;;;;;;5.77;5.00;;;13.60;45.70;;;;;;6283824;28;20229;-81
2023/04/19 13:07:45;;;;;;;5.10;4.70;;;13.70;45.90;;;;;;6283138;28;20287;-79
2023/04/19 13:10:49;;;;;;;5.17;4.80;;;13.80;45.90;;;;;;6287440;28;20239;-79
2023/04/19 13:13:53;;;;;;;4.90;4.60;;;14.00;45.70;;;;;;6288085;28;20229;-82
2023/04/19 13:16:56;;;;;;;5.30;4.77;;;14.10;45.40;;;;;;6285904;28;20732;-81
2023/04/19 13:19:59;;;;;;;4.93;4.63;;;14.20;44.60;;;;;;6287561;28;20222;-79
2023/04/19 13:23:02;;;;;;;5.67;5.07;;;13.90;45.30;;;;;;6285984;28;20594;-78
2023/04/19 13:26:06;;;;;;;7.03;4.97;;;13.70;45.50;;;;;;6285663;28;20324;-79
2023/04/19 13:29:10;;;;;;;6.53;4.67;;;13.80;45.30;;;;;;6287548;28;20245;-79
2023/04/19 13:32:13;;;;;;;5.30;4.80;;;13.70;45.10;;;;;;6282933;28;20364;-79
2023/04/19 13:35:16;;;;;;;6.03;4.77;;;13.70;44.80;;;;;;6285544;28;20882;-79
2023/04/19 13:38:20;;;;;;;5.50;5.00;;;13.60;44.30;;;;;;6284879;28;20238;-78
2023/04/19 13:41:23;;;;;;;7.27;4.93;;;13.70;44.00;;;;;;6286782;28;20256;-79
2023/04/19 13:44:27;;;;;;;4.70;4.40;;;13.70;44.00;;;;;;6287618;28;20413;-81
2023/04/19 13:47:30;;;;;;;5.10;4.70;;;13.70;44.00;;;;;;6283905;28;20601;-78
2023/04/19 13:50:33;;;;;;;7.30;4.77;;;13.60;44.20;;;;;;6288098;28;20236;-79
2023/04/19 13:53:36;;;;;;;5.17;4.53;;;13.50;44.50;;;;;;6284064;28;20238;-78
2023/04/19 13:56:40;;;;;;;4.67;4.43;;;13.50;44.60;;;;;;6276442;28;20806;-78
2023/04/19 13:59:45;;;;;;;4.50;4.30;;;13.20;44.90;;;;;;6287639;28;20229;-80
2023/04/19 14:02:48;;;;;;;4.70;4.40;;;13.00;45.70;;;;;;6290709;28;20314;-79
2023/04/19 14:05:54;;;;;;;7.93;5.07;;;12.80;45.40;;;;;;6290955;28;20294;-80
2023/04/19 14:08:57;;;;;;;10.03;5.00;;;12.70;45.70;;;;;;6294549;28;20233;-77
2023/04/19 14:12:01;;;;;;;4.90;4.60;;;12.50;47.00;;;;;;6302907;28;20260;-80
2023/04/19 14:15:07;;;;;;;4.80;4.60;;;12.10;48.80;;;;;;6287395;28;20236;-79
2023/04/19 14:18:10;;;;;;;5.53;5.13;;;11.90;50.90;;;;;;6281649;28;20237;-78
2023/04/19 14:21:14;;;;;;;5.80;5.27;;;11.70;51.10;;;;;;6271168;28;20386;-78
2023/04/19 14:24:17;;;;;;;5.13;4.83;;;11.70;50.90;;;;;;6282043;28;20229;-81
2023/04/19 14:27:20;;;;;;;5.00;4.70;;;11.90;50.30;;;;;;6287756;28;20268;-79
2023/04/19 14:30:25;;;;;;;5.50;5.07;;;12.00;49.70;;;;;;6279748;28;20737;-80
2023/04/19 14:33:29;;;;;;;8.47;6.00;;;12.10;49.60;;;;;;6283701;28;20243;-79
2023/04/19 14:36:33;;;;;;;6.47;5.67;;;12.10;48.90;;;;;;6280415;28;20292;-81
2023/04/19 14:39:36;;;;;;;10.00;5.27;;;12.10;49.50;;;;;;6289809;28;20235;-82
2023/04/19 14:42:39;;;;;;;6.33;5.50;;;12.00;49.00;;;;;;6290668;28;20265;-81
2023/04/19 14:45:43;;;;;;;8.07;5.03;;;11.90;48.70;;;;;;6289332;28;20264;-80
2023/04/19 14:48:47;;;;;;;6.70;5.43;;;11.80;48.70;;;;;;6282075;28;20229;-78
2023/04/19 14:51:51;;;;;;;8.37;5.70;;;11.60;49.10;;;;;;6294811;28;20866;-79
2023/04/19 14:54:54;;;;;;;11.40;6.60;;;11.50;49.60;;;;;;6288792;28;20233;-81
2023/04/19 14:57:57;;;;;;;8.33;6.30;;;11.40;49.60;;;;;;6291132;28;20235;-80
2023/04/19 15:01:10;;;;;;;8.03;6.63;;;11.50;50.10;;;;;;6292644;27;20263;-80
2023/04/19 15:04:14;;;;;;;7.40;6.40;;;11.30;51.20;;;;;;6285796;28;20234;-79
2023/04/19 15:07:17;;;;;;;7.23;6.53;;;11.00;53.00;;;;;;6287044;28;20316;-80
2023/04/19 15:10:20;;;;;;;9.27;7.30;;;10.70;55.10;;;;;;6291636;28;20336;-82
2023/04/19 15:13:23;;;;;;;7.37;6.67;;;10.40;56.00;;;;;;6283108;28;20236;-80
2023/04/19 15:16:28;;;;;;;9.60;7.27;;;10.10;56.50;;;;;;6286292;28;20268;-82
2023/04/19 15:19:31;;;;;;;7.93;6.87;;;9.90;58.00;;;;;;6289208;28;20323;-80
2023/04/19 15:22:34;;;;;;;7.93;7.23;;;9.70;59.00;;;;;;6290126;28;20241;-79
2023/04/19 15:25:37;;;;;;;10.33;6.63;;;9.50;59.60;;;;;;6296505;28;20233;-79
2023/04/19 15:28:40;;;;;;;9.20;6.00;;;9.40;60.90;;;;;;6289727;28;20241;-79
2023/04/19 15:31:45;;;;;;;7.70;7.00;;;9.20;62.00;;;;;;6283647;28;20237;-81
2023/04/19 15:34:48;;;;;;;7.87;7.00;;;8.80;63.70;;;;;;6288437;28;20221;-77
2023/04/19 15:37:51;;;;;;;7.23;6.63;;;8.50;64.70;;;;;;6294065;28;20241;-80
2023/04/19 15:40:55;;;;;;;6.97;6.37;;;8.20;66.20;;;;;;6281495;28;20745;-79
2023/04/19 15:43:58;;;;;;;7.57;7.07;;;7.80;66.70;;;;;;6284917;28;20651;-79
2023/04/19 15:47:03;;;;;;;8.60;7.10;;;7.50;68.20;;;;;;6285644;28;20229;-79
2023/04/19 15:50:07;;;;;;;9.87;7.70;;;7.30;68.70;;;;;;6287679;28;20412;-78
2023/04/19 15:53:10;;;;;;;8.77;7.97;;;7.10;69.40;;;;;;6275119;28;20607;-81
2023/04/19 15:56:13;;;;;;;11.03;8.00;;;6.90;69.50;;;;;;6284158;28;20244;-80
2023/04/19 15:59:16;;;;;;;8.83;7.97;;;6.70;70.00;;;;;;6275159;28;20233;-81
2023/04/19 16:02:21;;;;;;;9.03;7.27;;;6.70;69.40;;;;;;6280870;28;20889;-80
2023/04/19 16:05:25;;;;;;;8.03;7.23;;;6.60;70.40;;;;;;6296322;28;20240;-80
2023/04/19 16:08:28;;;;;;;11.37;8.00;;;6.40;70.40;;;;;;6278180;28;20808;-78
2023/04/19 16:11:31;;;;;;;8.77;7.77;;;6.40;70.90;;;;;;6286302;28;20241;-78